createdAt,value
2023-05-11T00:02:03.319Z,100837.13
2023-05-11T00:04:31.636Z,100837.47
2023-05-11T00:07:01.367Z,100830.38
2023-05-11T00:09:30.025Z,100832.81
2023-05-11T00:11:58.400Z,100837.41
2023-05-11T00:14:26.835Z,100836.22
2023-05-11T00:16:55.054Z,100834.50
2023-05-11T00:19:23.266Z,100833.53
2023-05-11T00:21:51.538Z,100826.84
2023-05-11T00:24:21.082Z,100831.75
2023-05-11T00:26:49.252Z,100831.19
2023-05-11T00:29:17.395Z,100827.19
2023-05-11T00:31:47.978Z,100835.44
2023-05-11T00:34:16.913Z,100836.09
2023-05-11T00:36:45.849Z,100836.00
2023-05-11T00:39:14.503Z,100832.91
2023-05-11T00:41:44.028Z,100819.59
2023-05-11T00:44:12.841Z,100827.22
2023-05-11T00:46:41.953Z,100832.38
2023-05-11T00:49:10.967Z,100843.28
2023-05-11T00:51:39.431Z,100837.88
2023-05-11T00:54:13.077Z,100838.47
2023-05-11T00:56:41.838Z,100836.56
2023-05-11T00:59:11.751Z,100838.09
2023-05-11T01:01:40.601Z,100839.22
2023-05-11T01:04:09.124Z,100844.69
2023-05-11T01:06:46.645Z,100838.16
2023-05-11T01:09:25.354Z,100842.84
2023-05-11T01:12:01.345Z,100845.59
2023-05-11T01:14:39.156Z,100838.97
2023-05-11T01:17:12.952Z,100852.69
2023-05-11T01:19:45.651Z,100849.09
2023-05-11T01:22:29.586Z,100857.44
2023-05-11T01:25:11.719Z,100854.63
2023-05-11T01:28:07.501Z,100854.59
2023-05-11T01:30:43.581Z,100854.22
2023-05-11T01:33:14.206Z,100866.81
2023-05-11T01:35:46.771Z,100850.25
2023-05-11T01:38:20.113Z,100853.47
2023-05-11T01:40:55.738Z,100851.19
2023-05-11T01:43:27.088Z,100858.38
2023-05-11T01:46:01.396Z,100865.09
2023-05-11T01:48:34.659Z,100863.13
2023-05-11T01:51:04.731Z,100861.38
2023-05-11T01:53:38.047Z,100883.47
2023-05-11T01:56:07.910Z,100883.09
2023-05-11T01:58:38.150Z,100886.66
2023-05-11T02:01:09.609Z,100876.66
2023-05-11T02:03:38.963Z,100881.16
2023-05-11T02:06:09.160Z,100884.13
2023-05-11T02:08:39.465Z,100877.88
2023-05-11T02:11:09.233Z,100879.53
2023-05-11T02:13:42.747Z,100883.94
2023-05-11T02:16:13.795Z,100891.13
2023-05-11T02:18:43.618Z,100890.34
2023-05-11T02:21:13.464Z,100885.94
2023-05-11T02:23:43.965Z,100894.22
2023-05-11T02:26:15.773Z,100888.41
2023-05-11T02:28:44.681Z,100885.75
2023-05-11T02:31:18.626Z,100887.03
2023-05-11T02:33:52.480Z,100889.44
2023-05-11T02:36:23.593Z,100896.47
2023-05-11T02:39:03.150Z,100894.22
2023-05-11T02:41:32.889Z,100894.91
2023-05-11T02:44:05.070Z,100906.47
2023-05-11T02:46:39.454Z,100907.91
2023-05-11T02:49:11.260Z,100904.72
2023-05-11T02:51:44.547Z,100907.44
2023-05-11T02:54:14.106Z,100914.38
2023-05-11T02:56:47.904Z,100915.66
2023-05-11T02:59:16.614Z,100911.94
2023-05-11T03:01:46.665Z,100912.31
2023-05-11T03:04:15.279Z,100915.44
2023-05-11T03:06:43.498Z,100918.78
2023-05-11T03:09:12.160Z,100918.44
2023-05-11T03:11:45.872Z,100915.69
2023-05-11T03:14:14.667Z,100912.69
2023-05-11T03:16:45.054Z,100912.50
2023-05-11T03:19:16.289Z,100910.72
2023-05-11T03:21:44.783Z,100922.25
2023-05-11T03:24:13.529Z,100913.22
2023-05-11T03:26:44.453Z,100903.63
2023-05-11T03:29:14.328Z,100910.97
2023-05-11T03:31:42.657Z,100913.88
2023-05-11T03:34:10.872Z,100915.41
2023-05-11T03:36:46.196Z,100909.31
2023-05-11T03:39:17.132Z,100913.69
2023-05-11T03:41:49.788Z,100914.72
2023-05-11T03:44:20.711Z,100909.75
2023-05-11T03:46:51.215Z,100918.47
2023-05-11T03:49:21.179Z,100911.09
2023-05-11T03:51:51.454Z,100923.44
2023-05-11T03:54:20.345Z,100916.47
2023-05-11T03:56:48.531Z,100920.50
2023-05-11T03:59:17.206Z,100927.16
2023-05-11T04:01:45.985Z,100915.84
2023-05-11T04:04:14.454Z,100920.31
2023-05-11T04:06:42.654Z,100921.00
2023-05-11T04:09:21.658Z,100909.16
2023-05-11T04:11:49.854Z,100922.03
2023-05-11T04:14:18.486Z,100920.00
2023-05-11T04:16:46.617Z,100920.50
2023-05-11T04:19:16.361Z,100919.13
2023-05-11T04:21:44.769Z,100925.59
2023-05-11T04:24:13.311Z,100913.91
2023-05-11T04:26:43.142Z,100924.41
2023-05-11T04:29:11.321Z,100925.97
2023-05-11T04:31:39.576Z,100918.72
2023-05-11T04:34:08.312Z,100920.16
2023-05-11T04:36:38.042Z,100924.97
2023-05-11T04:39:07.862Z,100924.00
2023-05-11T04:41:38.355Z,100921.97
2023-05-11T04:44:08.338Z,100929.88
2023-05-11T04:46:38.454Z,100936.31
2023-05-11T04:49:07.015Z,100936.44
2023-05-11T04:51:37.257Z,100930.03
2023-05-11T04:54:05.870Z,100937.59
2023-05-11T04:56:34.023Z,100939.09
2023-05-11T04:59:03.972Z,100938.63
2023-05-11T05:01:34.943Z,100937.13
2023-05-11T05:04:04.285Z,100949.31
2023-05-11T05:06:33.152Z,100939.81
2023-05-11T05:09:01.276Z,100943.34
2023-05-11T05:11:29.438Z,100951.06
2023-05-11T05:13:57.801Z,100953.94
2023-05-11T05:16:26.026Z,100952.91
2023-05-11T05:18:55.662Z,100948.78
2023-05-11T05:21:23.921Z,100947.00
2023-05-11T05:23:52.049Z,100948.78
2023-05-11T05:26:20.173Z,100950.56
2023-05-11T05:28:48.960Z,100953.81
2023-05-11T05:31:17.975Z,100952.97
2023-05-11T05:33:46.171Z,100949.63
2023-05-11T05:36:16.204Z,100960.34
2023-05-11T05:38:44.849Z,100959.66
2023-05-11T05:41:13.079Z,100959.53
2023-05-11T05:43:44.131Z,100968.16
2023-05-11T05:46:13.224Z,100967.94
2023-05-11T05:48:41.668Z,100970.09
2023-05-11T05:51:10.855Z,100975.69
2023-05-11T05:53:40.886Z,100965.88
2023-05-11T05:56:09.321Z,100978.19
2023-05-11T05:58:37.537Z,100985.00
2023-05-11T06:01:05.911Z,100974.72
2023-05-11T06:03:34.220Z,100986.69
2023-05-11T06:06:03.085Z,100995.34
2023-05-11T06:08:31.464Z,100992.66
2023-05-11T06:11:01.022Z,101006.41
2023-05-11T06:13:29.167Z,101001.09
2023-05-11T06:15:58.840Z,100992.81
2023-05-11T06:18:31.595Z,100996.41
2023-05-11T06:21:00.530Z,100999.59
2023-05-11T06:23:30.317Z,101005.47
2023-05-11T06:25:58.906Z,101000.97
2023-05-11T06:28:30.108Z,101008.78
2023-05-11T06:31:03.756Z,101008.22
2023-05-11T06:33:35.560Z,100997.09
2023-05-11T06:36:06.690Z,100997.09
2023-05-11T06:38:36.160Z,100997.00
2023-05-11T06:41:04.318Z,100998.09
2023-05-11T06:43:34.062Z,101005.13
2023-05-11T06:46:04.352Z,100998.44
2023-05-11T06:48:33.698Z,101001.25
2023-05-11T06:51:02.152Z,101007.75
2023-05-11T06:53:30.281Z,101012.28
2023-05-11T06:55:59.559Z,101015.97
2023-05-11T06:58:28.009Z,101003.44
2023-05-11T07:00:57.664Z,101000.84
2023-05-11T07:03:25.915Z,101003.41
2023-05-11T07:05:54.418Z,101013.13
2023-05-11T07:08:22.637Z,101009.91
2023-05-11T07:10:50.830Z,101012.09
2023-05-11T07:13:18.995Z,101006.56
2023-05-11T07:15:47.208Z,101015.75
2023-05-11T07:18:17.022Z,101016.31
2023-05-11T07:20:49.893Z,101016.59
2023-05-11T07:23:18.314Z,101020.44
2023-05-11T07:25:46.518Z,101022.72
2023-05-11T07:28:14.712Z,101020.00
2023-05-11T07:30:42.987Z,101020.09
2023-05-11T07:33:11.198Z,101010.78
2023-05-11T07:35:40.812Z,101008.53
2023-05-11T07:38:11.793Z,101013.47
2023-05-11T07:40:40.094Z,101015.13
2023-05-11T07:43:08.322Z,101012.34
2023-05-11T07:45:37.127Z,101013.19
2023-05-11T07:48:05.457Z,101011.78
2023-05-11T07:50:33.730Z,101018.13
2023-05-11T07:53:03.197Z,101021.22
2023-05-11T07:55:31.363Z,101014.38
2023-05-11T07:57:59.546Z,101014.09
2023-05-11T08:00:27.886Z,101013.44
2023-05-11T08:02:56.790Z,101019.69
2023-05-11T08:05:25.204Z,101014.19
2023-05-11T08:07:53.554Z,101021.31
2023-05-11T08:10:23.228Z,101010.72
2023-05-11T08:12:51.611Z,101010.34
2023-05-11T08:15:20.014Z,101005.41
2023-05-11T08:17:48.489Z,101006.16
2023-05-11T08:20:16.922Z,101009.28
2023-05-11T08:22:45.531Z,101013.13
2023-05-11T08:25:14.584Z,101011.78
2023-05-11T08:27:44.266Z,101004.19
2023-05-11T08:30:13.277Z,101009.06
2023-05-11T08:35:13.281Z,101011.09
2023-05-11T08:37:41.471Z,101004.69
2023-05-11T08:40:14.576Z,101004.13
2023-05-11T08:42:47.806Z,101007.09
2023-05-11T08:45:17.236Z,101006.34
2023-05-11T08:47:46.526Z,100999.25
2023-05-11T08:50:14.996Z,101002.59
2023-05-11T08:52:43.699Z,101003.97
2023-05-11T08:55:12.820Z,100982.06
2023-05-11T08:57:43.644Z,100987.97
2023-05-11T09:00:14.471Z,100991.34
2023-05-11T09:02:43.748Z,100999.84
2023-05-11T09:05:12.530Z,100998.56
2023-05-11T09:07:43.437Z,100990.22
2023-05-11T09:12:42.057Z,100977.69
2023-05-11T09:15:11.302Z,100987.06
2023-05-11T09:17:40.932Z,100976.66
2023-05-11T09:20:10.195Z,100962.09
2023-05-11T09:22:44.018Z,100982.34
2023-05-11T09:25:13.743Z,100978.03
2023-05-11T09:27:42.960Z,100971.53
2023-05-11T09:32:52.982Z,100968.88
2023-05-11T09:35:25.866Z,100955.66
2023-05-11T09:38:02.319Z,100967.78
2023-05-11T09:40:34.177Z,100973.66
2023-05-11T09:43:03.690Z,100971.97
2023-05-11T09:45:39.718Z,100966.50
2023-05-11T09:48:24.549Z,100959.81
2023-05-11T09:51:00.641Z,100960.75
2023-05-11T09:53:35.887Z,100971.88
2023-05-11T09:56:04.700Z,100971.88
2023-05-11T09:58:47.861Z,100973.88
2023-05-11T10:01:16.497Z,100973.28
2023-05-11T10:04:02.699Z,100984.38
2023-05-11T10:06:49.029Z,100983.50
2023-05-11T10:09:19.444Z,100965.88
2023-05-11T10:11:47.849Z,100963.00
2023-05-11T10:14:16.628Z,100957.91
2023-05-11T10:16:45.492Z,100960.94
2023-05-11T10:19:15.989Z,100966.09
2023-05-11T10:21:45.415Z,100965.94
2023-05-11T10:24:13.879Z,100974.28
2023-05-11T10:26:42.402Z,100962.91
2023-05-11T10:29:10.865Z,100952.22
2023-05-11T10:31:39.405Z,100957.19
2023-05-11T10:34:07.967Z,100963.03
2023-05-11T10:36:37.462Z,100972.97
2023-05-11T10:39:05.988Z,100968.72
2023-05-11T10:41:48.078Z,100961.50
2023-05-11T10:44:44.178Z,100987.13
2023-05-11T10:47:43.836Z,100986.59
2023-05-11T10:50:26.839Z,100981.09
2023-05-11T10:53:19.007Z,100982.63
2023-05-11T10:56:06.221Z,100975.69
2023-05-11T10:58:49.982Z,100955.47
2023-05-11T11:01:35.397Z,100968.09
2023-05-11T11:04:06.555Z,100960.19
2023-05-11T11:06:36.012Z,100966.72
2023-05-11T11:09:07.956Z,100951.94
2023-05-11T11:11:39.143Z,100958.19
2023-05-11T11:14:09.561Z,100949.88
2023-05-11T11:16:39.101Z,100946.66
2023-05-11T11:19:36.364Z,100948.44
2023-05-11T11:22:04.660Z,100945.03
2023-05-11T11:24:47.632Z,100942.03
2023-05-11T11:27:16.283Z,100930.38
2023-05-11T11:30:17.385Z,100936.69
2023-05-11T11:32:46.354Z,100940.91
2023-05-11T11:35:48.642Z,100941.72
2023-05-11T11:38:18.530Z,100936.81
2023-05-11T11:40:51.579Z,100928.19
2023-05-11T11:43:22.020Z,100945.44
2023-05-11T11:45:54.857Z,100948.78
2023-05-11T11:48:25.166Z,100930.91
2023-05-11T11:51:04.005Z,100940.22
2023-05-11T11:54:00.688Z,100939.63
2023-05-11T11:56:41.613Z,100929.00
2023-05-11T11:59:13.858Z,100919.38
2023-05-11T12:01:44.391Z,100915.66
2023-05-11T12:04:50.780Z,100915.16
2023-05-11T12:07:22.564Z,100902.91
2023-05-11T12:09:52.856Z,100917.31
2023-05-11T12:12:22.677Z,100900.44
2023-05-11T12:14:50.918Z,100900.75
2023-05-11T12:17:28.294Z,100900.13
2023-05-11T12:20:11.722Z,100898.75
2023-05-11T12:22:39.951Z,100912.22
2023-05-11T12:25:11.336Z,100909.94
2023-05-11T12:27:49.491Z,100906.50
2023-05-11T12:30:22.156Z,100886.97
2023-05-11T12:32:56.633Z,100891.16
2023-05-11T12:35:26.637Z,100903.00
2023-05-11T12:37:55.846Z,100908.50
2023-05-11T12:40:24.803Z,100909.00
2023-05-11T12:42:55.853Z,100901.59
2023-05-11T12:45:25.673Z,100908.13
2023-05-11T12:47:55.384Z,100899.66
2023-05-11T12:50:23.915Z,100903.16
2023-05-11T12:52:52.754Z,100906.19
2023-05-11T12:55:28.953Z,100906.84
2023-05-11T12:58:09.927Z,100917.03
2023-05-11T13:00:38.740Z,100915.63
2023-05-11T13:03:07.848Z,100909.44
2023-05-11T13:05:36.753Z,100901.84
2023-05-11T13:08:06.605Z,100898.13
2023-05-11T13:10:34.748Z,100895.25
2023-05-11T13:13:02.940Z,100898.63
2023-05-11T13:15:33.496Z,100900.47
2023-05-11T13:18:03.284Z,100894.56
2023-05-11T13:20:34.275Z,100907.44
2023-05-11T13:23:07.728Z,100907.56
2023-05-11T13:25:51.610Z,100898.25
2023-05-11T13:28:23.381Z,100902.78
2023-05-11T13:30:59.713Z,100903.22
2023-05-11T13:33:28.351Z,100887.31
2023-05-11T13:35:56.826Z,100900.78
2023-05-11T13:38:25.001Z,100898.56
2023-05-11T13:40:53.198Z,100910.91
2023-05-11T13:43:21.731Z,100897.28
2023-05-11T13:45:49.893Z,100915.06
2023-05-11T13:48:19.433Z,100898.09
2023-05-11T13:50:47.655Z,100897.38
2023-05-11T13:53:16.531Z,100907.19
2023-05-11T13:55:44.749Z,100905.66
2023-05-11T13:58:13.031Z,100894.41
2023-05-11T14:00:41.301Z,100910.88
2023-05-11T14:03:09.717Z,100915.47
2023-05-11T14:05:39.675Z,100917.09
2023-05-11T14:08:08.107Z,100922.63
2023-05-11T14:10:36.286Z,100913.03
2023-05-11T14:13:06.372Z,100922.81
2023-05-11T14:15:35.224Z,100910.13
2023-05-11T14:18:05.007Z,100917.31
2023-05-11T14:20:33.294Z,100919.44
2023-05-11T14:23:03.246Z,100912.25
2023-05-11T14:25:31.886Z,100908.25
2023-05-11T14:28:00.172Z,100916.28
2023-05-11T14:30:28.367Z,100914.91
2023-05-11T14:32:57.065Z,100915.81
2023-05-11T14:35:25.484Z,100908.44
2023-05-11T14:37:54.513Z,100918.78
2023-05-11T14:40:24.441Z,100912.09
2023-05-11T14:42:52.674Z,100921.13
2023-05-11T14:45:21.172Z,100916.56
2023-05-11T14:47:49.693Z,100916.00
2023-05-11T14:50:18.035Z,100919.59
2023-05-11T14:52:47.013Z,100905.06
2023-05-11T14:55:15.356Z,100908.78
2023-05-11T14:57:45.016Z,100908.56
2023-05-11T15:00:14.244Z,100902.84
2023-05-11T15:02:42.502Z,100908.16
2023-05-11T15:05:11.029Z,100911.41
2023-05-11T15:07:39.450Z,100919.50
2023-05-11T15:10:08.715Z,100918.25
2023-05-11T15:12:36.961Z,100924.44
2023-05-11T15:15:07.642Z,100920.56
2023-05-11T15:17:36.140Z,100913.84
2023-05-11T15:20:04.917Z,100927.50
2023-05-11T15:22:33.248Z,100927.88
2023-05-11T15:25:01.590Z,100926.00
2023-05-11T15:27:29.770Z,100917.91
2023-05-11T15:29:57.958Z,100923.31
2023-05-11T15:32:27.509Z,100937.72
2023-05-11T15:34:59.848Z,100946.69
2023-05-11T15:37:28.797Z,100934.72
2023-05-11T15:39:57.095Z,100943.00
2023-05-11T15:42:25.540Z,100947.03
2023-05-11T15:44:53.882Z,100947.75
2023-05-11T15:47:22.541Z,100949.72
2023-05-11T15:49:52.667Z,100952.53
2023-05-11T15:52:20.892Z,100953.41
2023-05-11T15:54:49.107Z,100955.47
2023-05-11T15:57:17.289Z,100958.34
2023-05-11T15:59:45.458Z,100970.66
2023-05-11T16:02:13.810Z,100955.94
2023-05-11T16:04:41.991Z,100961.81
2023-05-11T16:07:11.569Z,100952.28
2023-05-11T16:09:39.901Z,100956.22
2023-05-11T16:12:08.631Z,100961.53
2023-05-11T16:14:36.850Z,100960.84
2023-05-11T16:17:05.782Z,100956.41
2023-05-11T16:19:33.978Z,100944.63
2023-05-11T16:22:02.194Z,100941.38
2023-05-11T16:24:34.394Z,100943.78
2023-05-11T16:27:03.096Z,100944.09
2023-05-11T16:29:31.257Z,100946.47
2023-05-11T16:31:59.525Z,100954.44
2023-05-11T16:34:28.215Z,100956.56
2023-05-11T16:36:58.750Z,100969.91
2023-05-11T16:39:27.747Z,100958.84
2023-05-11T16:41:57.310Z,100971.81
2023-05-11T16:44:25.604Z,100968.56
2023-05-11T16:46:53.924Z,100978.94
2023-05-11T16:49:22.228Z,100963.03
2023-05-11T16:51:51.714Z,100968.47
2023-05-11T16:54:19.922Z,100983.84
2023-05-11T16:56:48.239Z,100978.00
2023-05-11T16:59:17.785Z,100981.50
2023-05-11T17:01:46.324Z,100972.53
2023-05-11T17:04:14.882Z,100980.00
2023-05-11T17:06:43.571Z,100981.50
2023-05-11T17:09:11.796Z,100978.53
2023-05-11T17:11:40.125Z,100989.66
2023-05-11T17:14:08.278Z,100993.22
2023-05-11T17:16:37.915Z,100996.22
2023-05-11T17:19:06.133Z,100997.41
2023-05-11T17:21:34.364Z,100991.28
2023-05-11T17:24:02.540Z,100987.81
2023-05-11T17:26:43.354Z,100990.53
2023-05-11T17:29:16.031Z,100989.78
2023-05-11T17:31:48.731Z,100991.22
2023-05-11T17:34:17.691Z,100988.69
2023-05-11T17:36:46.156Z,100986.13
2023-05-11T17:39:16.028Z,100994.94
2023-05-11T17:41:44.641Z,101001.72
2023-05-11T17:44:12.833Z,101001.03
2023-05-11T17:46:41.008Z,101003.63
2023-05-11T17:49:11.417Z,101013.50
2023-05-11T17:51:39.662Z,101019.28
2023-05-11T17:54:08.158Z,101017.84
2023-05-11T17:56:36.382Z,101012.78
2023-05-11T17:59:04.569Z,101019.88
2023-05-11T18:01:33.629Z,101025.22
2023-05-11T18:04:02.717Z,101018.97
2023-05-11T18:06:32.633Z,101036.78
2023-05-11T18:09:00.933Z,101035.63
2023-05-11T18:11:29.477Z,101041.50
2023-05-11T18:13:57.900Z,101041.84
2023-05-11T18:16:26.378Z,101041.97
2023-05-11T18:18:55.265Z,101042.34
2023-05-11T18:21:23.534Z,101059.16
2023-05-11T18:23:53.007Z,101050.72
2023-05-11T18:26:22.210Z,101045.28
2023-05-11T18:28:50.386Z,101052.00
2023-05-11T18:31:19.118Z,101056.75
2023-05-11T18:33:47.565Z,101053.59
2023-05-11T18:36:16.031Z,101058.69
2023-05-11T18:38:45.019Z,101068.78
2023-05-11T18:41:14.568Z,101074.81
2023-05-11T18:43:44.018Z,101078.00
2023-05-11T18:46:12.324Z,101080.44
2023-05-11T18:48:40.523Z,101097.78
2023-05-11T18:51:08.763Z,101086.97
2023-05-11T18:53:37.510Z,101097.75
2023-05-11T18:56:06.134Z,101100.22
2023-05-11T18:58:35.606Z,101100.53
2023-05-11T19:01:04.426Z,101110.53
2023-05-11T19:03:32.823Z,101112.31
2023-05-11T19:06:01.772Z,101109.09
2023-05-11T19:08:30.121Z,101117.34
2023-05-11T19:10:58.417Z,101127.81
2023-05-11T19:13:27.116Z,101126.09
2023-05-11T19:15:56.642Z,101129.28
2023-05-11T19:18:25.556Z,101130.75
2023-05-11T19:20:54.002Z,101132.56
2023-05-11T19:23:22.201Z,101138.16
2023-05-11T19:25:50.412Z,101135.56
2023-05-11T19:28:18.597Z,101139.25
2023-05-11T19:30:46.803Z,101133.97
2023-05-11T19:33:16.406Z,101140.94
2023-05-11T19:35:44.810Z,101148.88
2023-05-11T19:38:12.948Z,101143.25
2023-05-11T19:40:45.964Z,101145.06
2023-05-11T19:43:14.874Z,101149.44
2023-05-11T19:45:43.568Z,101151.25
2023-05-11T19:48:12.072Z,101147.25
2023-05-11T19:50:41.997Z,101148.38
2023-05-11T19:53:10.211Z,101150.19
2023-05-11T19:55:38.365Z,101157.75
2023-05-11T19:58:06.879Z,101150.16
2023-05-11T20:00:35.233Z,101145.44
2023-05-11T20:03:03.706Z,101160.91
2023-05-11T20:05:31.922Z,101161.66
2023-05-11T20:08:01.466Z,101165.28
2023-05-11T20:10:29.848Z,101167.06
2023-05-11T20:12:59.441Z,101170.16
2023-05-11T20:15:27.621Z,101169.91
2023-05-11T20:17:56.373Z,101176.00
2023-05-11T20:20:24.812Z,101166.78
2023-05-11T20:22:53.253Z,101173.34
2023-05-11T20:25:22.955Z,101177.41
2023-05-11T20:27:51.470Z,101172.13
2023-05-11T20:30:20.095Z,101181.22
2023-05-11T20:35:19.936Z,101182.47
2023-05-11T20:37:48.307Z,101180.75
2023-05-11T20:40:17.118Z,101168.25
2023-05-11T20:42:46.938Z,101166.50
2023-05-11T20:45:15.916Z,101163.59
2023-05-11T20:47:44.254Z,101173.09
2023-05-11T20:50:15.242Z,101172.16
2023-05-11T20:52:43.432Z,101168.38
2023-05-11T20:55:11.705Z,101169.56
2023-05-11T20:57:39.988Z,101168.25
2023-05-11T21:00:11.270Z,101171.78
2023-05-11T21:02:39.478Z,101173.84
2023-05-11T21:05:08.268Z,101165.06
2023-05-11T21:07:36.586Z,101170.06
2023-05-11T21:10:05.400Z,101176.03
2023-05-11T21:12:33.569Z,101176.28
2023-05-11T21:15:01.888Z,101171.63
2023-05-11T21:17:31.565Z,101185.63
2023-05-11T21:19:59.948Z,101180.53
2023-05-11T21:22:28.106Z,101183.06
2023-05-11T21:24:56.275Z,101191.59
2023-05-11T21:27:24.465Z,101186.22
2023-05-11T21:29:52.721Z,101189.06
2023-05-11T21:32:21.241Z,101192.22
2023-05-11T21:34:51.014Z,101186.16
2023-05-11T21:37:20.443Z,101198.28
2023-05-11T21:39:48.630Z,101199.50
2023-05-11T21:42:17.222Z,101199.19
2023-05-11T21:44:45.416Z,101202.38
2023-05-11T21:47:13.942Z,101203.88
2023-05-11T21:49:42.157Z,101204.31
2023-05-11T21:52:11.610Z,101213.28
2023-05-11T21:54:39.854Z,101206.03
2023-05-11T21:57:08.066Z,101213.09
2023-05-11T21:59:36.238Z,101214.81
2023-05-11T22:02:04.607Z,101213.09
2023-05-11T22:04:32.851Z,101217.38
2023-05-11T22:07:01.675Z,101220.06
2023-05-11T22:09:31.621Z,101222.69
2023-05-11T22:11:59.819Z,101216.84
2023-05-11T22:14:28.042Z,101229.97
2023-05-11T22:16:56.275Z,101222.97
2023-05-11T22:19:24.417Z,101232.44
2023-05-11T22:21:53.469Z,101232.03
2023-05-11T22:24:23.078Z,101229.63
2023-05-11T22:26:53.411Z,101232.63
2023-05-11T22:29:21.769Z,101225.34
2023-05-11T22:31:50.026Z,101229.66
2023-05-11T22:34:20.985Z,101235.84
2023-05-11T22:36:49.161Z,101236.91
2023-05-11T22:39:17.368Z,101233.84
2023-05-11T22:41:45.573Z,101235.00
2023-05-11T22:44:15.116Z,101239.94
2023-05-11T22:46:43.385Z,101233.00
2023-05-11T22:49:11.583Z,101237.38
2023-05-11T22:51:39.874Z,101245.28
2023-05-11T22:54:08.052Z,101249.34
2023-05-11T22:56:37.092Z,101245.72
2023-05-11T22:59:05.454Z,101256.47
2023-05-11T23:01:35.101Z,101258.22
2023-05-11T23:04:03.274Z,101257.72
2023-05-11T23:06:32.638Z,101258.69
2023-05-11T23:09:00.843Z,101250.53
2023-05-11T23:11:29.124Z,101257.31
2023-05-11T23:13:57.405Z,101256.06
2023-05-11T23:16:25.553Z,101258.59
2023-05-11T23:18:55.313Z,101247.09
2023-05-11T23:21:23.581Z,101256.00
2023-05-11T23:23:52.003Z,101259.78
2023-05-11T23:26:20.206Z,101255.03
2023-05-11T23:28:48.396Z,101254.44
2023-05-11T23:31:16.599Z,101256.09
2023-05-11T23:33:44.919Z,101260.53
2023-05-11T23:36:14.521Z,101259.94
2023-05-11T23:38:42.709Z,101250.84
2023-05-11T23:41:11.188Z,101251.34
2023-05-11T23:43:39.367Z,101248.78
2023-05-11T23:46:07.846Z,101248.03
2023-05-11T23:48:36.048Z,101252.78
2023-05-11T23:51:04.598Z,101242.03
2023-05-11T23:53:34.109Z,101245.94
2023-05-11T23:56:02.270Z,101238.50
2023-05-11T23:58:30.501Z,101246.50
